sensor_id;sensor_type;location;lat;lon;timestamp;P1;durP1;ratioP1;P2;durP2;ratioP2
35530;SDS011;21637;53.352;-6.356;2024-02-04T00:01:41;6.93;;;5.88;;
35530;SDS011;21637;53.352;-6.356;2024-02-04T00:04:07;7.18;;;6.47;;
35530;SDS011;21637;53.352;-6.356;2024-02-04T00:06:33;7.15;;;5.97;;
35530;SDS011;21637;53.352;-6.356;2024-02-04T00:08:59;7.70;;;6.90;;
35530;SDS011;21637;53.352;-6.356;2024-02-04T00:11:24;8.20;;;6.88;;
35530;SDS011;21637;53.352;-6.356;2024-02-04T00:13:50;11.15;;;8.18;;
35530;SDS011;21637;53.352;-6.356;2024-02-04T00:16:17;10.32;;;7.30;;
35530;SDS011;21637;53.352;-6.356;2024-02-04T00:18:42;10.23;;;7.57;;
35530;SDS011;21637;53.352;-6.356;2024-02-04T00:21:08;8.38;;;6.85;;
35530;SDS011;21637;53.352;-6.356;2024-02-04T00:23:34;10.50;;;7.93;;
35530;SDS011;21637;53.352;-6.356;2024-02-04T00:26:00;8.13;;;7.03;;
35530;SDS011;21637;53.352;-6.356;2024-02-04T00:28:26;8.32;;;6.05;;
35530;SDS011;21637;53.352;-6.356;2024-02-04T00:30:53;9.13;;;6.35;;
35530;SDS011;21637;53.352;-6.356;2024-02-04T00:33:20;7.03;;;5.82;;
35530;SDS011;21637;53.352;-6.356;2024-02-04T00:35:46;8.32;;;6.60;;
35530;SDS011;21637;53.352;-6.356;2024-02-04T00:38:13;10.65;;;7.95;;
35530;SDS011;21637;53.352;-6.356;2024-02-04T00:40:38;11.57;;;7.72;;
35530;SDS011;21637;53.352;-6.356;2024-02-04T00:43:04;7.68;;;6.55;;
35530;SDS011;21637;53.352;-6.356;2024-02-04T00:45:30;8.10;;;7.30;;
35530;SDS011;21637;53.352;-6.356;2024-02-04T00:47:56;25.17;;;14.45;;
35530;SDS011;21637;53.352;-6.356;2024-02-04T00:50:21;27.33;;;15.18;;
35530;SDS011;21637;53.352;-6.356;2024-02-04T00:52:47;13.35;;;8.77;;
35530;SDS011;21637;53.352;-6.356;2024-02-04T00:55:13;6.57;;;5.82;;
35530;SDS011;21637;53.352;-6.356;2024-02-04T00:57:38;6.57;;;5.38;;
35530;SDS011;21637;53.352;-6.356;2024-02-04T01:00:04;6.80;;;5.18;;
35530;SDS011;21637;53.352;-6.356;2024-02-04T01:02:30;8.07;;;5.55;;
35530;SDS011;21637;53.352;-6.356;2024-02-04T01:04:56;5.88;;;4.93;;
35530;SDS011;21637;53.352;-6.356;2024-02-04T01:07:22;9.25;;;7.10;;
35530;SDS011;21637;53.352;-6.356;2024-02-04T01:09:47;8.05;;;6.53;;
35530;SDS011;21637;53.352;-6.356;2024-02-04T01:12:13;6.68;;;5.55;;
35530;SDS011;21637;53.352;-6.356;2024-02-04T01:14:39;7.30;;;5.53;;
35530;SDS011;21637;53.352;-6.356;2024-02-04T01:19:49;6.85;;;4.63;;
35530;SDS011;21637;53.352;-6.356;2024-02-04T01:22:15;5.45;;;4.90;;
35530;SDS011;21637;53.352;-6.356;2024-02-04T01:24:40;5.10;;;4.43;;
35530;SDS011;21637;53.352;-6.356;2024-02-04T01:27:06;5.53;;;4.70;;
35530;SDS011;21637;53.352;-6.356;2024-02-04T01:29:32;6.25;;;5.10;;
35530;SDS011;21637;53.352;-6.356;2024-02-04T01:31:58;5.20;;;4.70;;
35530;SDS011;21637;53.352;-6.356;2024-02-04T01:34:24;6.28;;;5.45;;
35530;SDS011;21637;53.352;-6.356;2024-02-04T01:36:49;5.68;;;5.00;;
35530;SDS011;21637;53.352;-6.356;2024-02-04T01:39:15;5.93;;;4.97;;
35530;SDS011;21637;53.352;-6.356;2024-02-04T01:41:41;5.40;;;4.90;;
35530;SDS011;21637;53.352;-6.356;2024-02-04T01:44:10;6.88;;;5.15;;
35530;SDS011;21637;53.352;-6.356;2024-02-04T01:46:36;5.57;;;4.85;;
35530;SDS011;21637;53.352;-6.356;2024-02-04T01:49:01;4.80;;;4.40;;
35530;SDS011;21637;53.352;-6.356;2024-02-04T01:51:27;4.57;;;4.13;;
35530;SDS011;21637;53.352;-6.356;2024-02-04T01:53:53;5.13;;;4.63;;
35530;SDS011;21637;53.352;-6.356;2024-02-04T01:56:18;5.88;;;4.68;;
35530;SDS011;21637;53.352;-6.356;2024-02-04T01:58:45;6.30;;;5.68;;
35530;SDS011;21637;53.352;-6.356;2024-02-04T02:01:11;10.73;;;6.63;;
35530;SDS011;21637;53.352;-6.356;2024-02-04T02:03:38;5.25;;;4.50;;
35530;SDS011;21637;53.352;-6.356;2024-02-04T02:06:04;5.72;;;4.68;;
35530;SDS011;21637;53.352;-6.356;2024-02-04T02:08:31;11.05;;;7.07;;
35530;SDS011;21637;53.352;-6.356;2024-02-04T02:11:02;4.25;;;3.72;;
35530;SDS011;21637;53.352;-6.356;2024-02-04T02:13:38;9.00;;;6.05;;
35530;SDS011;21637;53.352;-6.356;2024-02-04T02:16:13;5.85;;;4.47;;
35530;SDS011;21637;53.352;-6.356;2024-02-04T02:18:46;3.60;;;3.30;;
35530;SDS011;21637;53.352;-6.356;2024-02-04T02:26:47;2.97;;;2.63;;
35530;SDS011;21637;53.352;-6.356;2024-02-04T02:29:14;3.53;;;3.22;;
35530;SDS011;21637;53.352;-6.356;2024-02-04T02:31:40;3.30;;;2.95;;
35530;SDS011;21637;53.352;-6.356;2024-02-04T02:34:07;4.05;;;2.95;;
35530;SDS011;21637;53.352;-6.356;2024-02-04T02:36:35;3.00;;;2.58;;
35530;SDS011;21637;53.352;-6.356;2024-02-04T02:39:09;2.65;;;2.45;;
35530;SDS011;21637;53.352;-6.356;2024-02-04T02:41:41;2.50;;;2.30;;
35530;SDS011;21637;53.352;-6.356;2024-02-04T02:44:09;3.00;;;2.70;;
35530;SDS011;21637;53.352;-6.356;2024-02-04T02:46:36;2.72;;;2.53;;
35530;SDS011;21637;53.352;-6.356;2024-02-04T02:49:02;2.88;;;2.63;;
35530;SDS011;21637;53.352;-6.356;2024-02-04T02:51:29;4.78;;;3.30;;
35530;SDS011;21637;53.352;-6.356;2024-02-04T02:53:55;2.35;;;2.15;;
35530;SDS011;21637;53.352;-6.356;2024-02-04T02:56:20;9.13;;;5.80;;
35530;SDS011;21637;53.352;-6.356;2024-02-04T02:58:46;2.58;;;2.38;;
35530;SDS011;21637;53.352;-6.356;2024-02-04T03:01:12;2.40;;;2.20;;
35530;SDS011;21637;53.352;-6.356;2024-02-04T03:03:37;2.13;;;1.90;;
35530;SDS011;21637;53.352;-6.356;2024-02-04T03:06:03;2.60;;;2.28;;
35530;SDS011;21637;53.352;-6.356;2024-02-04T03:08:29;2.17;;;2.08;;
35530;SDS011;21637;53.352;-6.356;2024-02-04T03:10:55;2.30;;;1.90;;
35530;SDS011;21637;53.352;-6.356;2024-02-04T03:13:21;2.65;;;2.15;;
35530;SDS011;21637;53.352;-6.356;2024-02-04T03:15:46;2.00;;;1.77;;
35530;SDS011;21637;53.352;-6.356;2024-02-04T03:18:12;3.53;;;2.83;;
35530;SDS011;21637;53.352;-6.356;2024-02-04T03:20:38;2.80;;;2.20;;
35530;SDS011;21637;53.352;-6.356;2024-02-04T03:23:03;1.52;;;1.27;;
35530;SDS011;21637;53.352;-6.356;2024-02-04T03:25:29;1.52;;;1.42;;
35530;SDS011;21637;53.352;-6.356;2024-02-04T03:27:55;2.83;;;1.58;;
35530;SDS011;21637;53.352;-6.356;2024-02-04T03:30:21;1.85;;;1.30;;
35530;SDS011;21637;53.352;-6.356;2024-02-04T03:32:46;1.20;;;1.10;;
35530;SDS011;21637;53.352;-6.356;2024-02-04T03:35:12;1.08;;;1.08;;
35530;SDS011;21637;53.352;-6.356;2024-02-04T03:37:38;4.38;;;2.55;;
35530;SDS011;21637;53.352;-6.356;2024-02-04T03:40:04;1.30;;;1.20;;
35530;SDS011;21637;53.352;-6.356;2024-02-04T03:42:30;7.63;;;3.03;;
35530;SDS011;21637;53.352;-6.356;2024-02-04T03:44:56;2.72;;;1.30;;
35530;SDS011;21637;53.352;-6.356;2024-02-04T03:47:21;0.80;;;0.80;;
35530;SDS011;21637;53.352;-6.356;2024-02-04T03:49:47;0.77;;;0.77;;
35530;SDS011;21637;53.352;-6.356;2024-02-04T03:52:13;0.93;;;0.93;;
35530;SDS011;21637;53.352;-6.356;2024-02-04T03:54:38;1.13;;;1.00;;
35530;SDS011;21637;53.352;-6.356;2024-02-04T03:57:04;0.70;;;0.70;;
35530;SDS011;21637;53.352;-6.356;2024-02-04T03:59:30;0.93;;;0.80;;
35530;SDS011;21637;53.352;-6.356;2024-02-04T04:01:55;0.85;;;0.82;;
35530;SDS011;21637;53.352;-6.356;2024-02-04T04:04:22;1.00;;;1.00;;
35530;SDS011;21637;53.352;-6.356;2024-02-04T04:06:48;0.82;;;0.82;;
35530;SDS011;21637;53.352;-6.356;2024-02-04T04:09:14;1.08;;;1.00;;
35530;SDS011;21637;53.352;-6.356;2024-02-04T04:11:40;1.10;;;1.00;;
35530;SDS011;21637;53.352;-6.356;2024-02-04T04:14:06;1.20;;;1.10;;
35530;SDS011;21637;53.352;-6.356;2024-02-04T04:16:31;1.25;;;1.15;;
35530;SDS011;21637;53.352;-6.356;2024-02-04T04:18:57;1.52;;;0.77;;
35530;SDS011;21637;53.352;-6.356;2024-02-04T04:21:25;2.35;;;0.90;;
35530;SDS011;21637;53.352;-6.356;2024-02-04T04:23:51;1.08;;;0.98;;
35530;SDS011;21637;53.352;-6.356;2024-02-04T04:26:17;1.10;;;0.90;;
35530;SDS011;21637;53.352;-6.356;2024-02-04T04:28:42;1.35;;;0.88;;
35530;SDS011;21637;53.352;-6.356;2024-02-04T04:31:08;0.93;;;0.73;;
35530;SDS011;21637;53.352;-6.356;2024-02-04T04:33:35;1.60;;;0.90;;
35530;SDS011;21637;53.352;-6.356;2024-02-04T04:36:01;0.80;;;0.80;;
35530;SDS011;21637;53.352;-6.356;2024-02-04T04:38:27;1.85;;;1.00;;
35530;SDS011;21637;53.352;-6.356;2024-02-04T04:40:53;0.75;;;0.70;;
35530;SDS011;21637;53.352;-6.356;2024-02-04T04:43:19;1.00;;;0.70;;
35530;SDS011;21637;53.352;-6.356;2024-02-04T04:45:44;0.70;;;0.63;;
35530;SDS011;21637;53.352;-6.356;2024-02-04T04:48:10;0.73;;;0.63;;
35530;SDS011;21637;53.352;-6.356;2024-02-04T04:50:36;0.60;;;0.60;;
35530;SDS011;21637;53.352;-6.356;2024-02-04T04:53:02;0.80;;;0.50;;
35530;SDS011;21637;53.352;-6.356;2024-02-04T04:55:27;0.40;;;0.40;;
35530;SDS011;21637;53.352;-6.356;2024-02-04T04:57:53;0.47;;;0.35;;
35530;SDS011;21637;53.352;-6.356;2024-02-04T05:00:19;0.50;;;0.40;;
35530;SDS011;21637;53.352;-6.356;2024-02-04T05:02:45;0.30;;;0.30;;
35530;SDS011;21637;53.352;-6.356;2024-02-04T05:05:13;0.88;;;0.68;;
35530;SDS011;21637;53.352;-6.356;2024-02-04T05:07:39;0.30;;;0.30;;
35530;SDS011;21637;53.352;-6.356;2024-02-04T05:10:05;0.20;;;0.20;;
35530;SDS011;21637;53.352;-6.356;2024-02-04T05:12:32;0.40;;;0.40;;
35530;SDS011;21637;53.352;-6.356;2024-02-04T05:14:58;0.40;;;0.32;;
35530;SDS011;21637;53.352;-6.356;2024-02-04T05:17:24;0.60;;;0.30;;
35530;SDS011;21637;53.352;-6.356;2024-02-04T05:19:51;0.28;;;0.28;;
35530;SDS011;21637;53.352;-6.356;2024-02-04T05:22:17;0.25;;;0.25;;
35530;SDS011;21637;53.352;-6.356;2024-02-04T05:24:42;0.20;;;0.20;;
35530;SDS011;21637;53.352;-6.356;2024-02-04T05:27:08;0.35;;;0.30;;
35530;SDS011;21637;53.352;-6.356;2024-02-04T05:29:34;0.40;;;0.22;;
35530;SDS011;21637;53.352;-6.356;2024-02-04T05:31:59;1.20;;;0.30;;
35530;SDS011;21637;53.352;-6.356;2024-02-04T05:34:26;0.20;;;0.20;;
35530;SDS011;21637;53.352;-6.356;2024-02-04T05:36:51;0.65;;;0.10;;
35530;SDS011;21637;53.352;-6.356;2024-02-04T05:39:17;0.52;;;0.20;;
35530;SDS011;21637;53.352;-6.356;2024-02-04T05:41:43;0.47;;;0.32;;
35530;SDS011;21637;53.352;-6.356;2024-02-04T05:44:08;0.50;;;0.20;;
35530;SDS011;21637;53.352;-6.356;2024-02-04T05:46:35;0.30;;;0.30;;
35530;SDS011;21637;53.352;-6.356;2024-02-04T05:49:01;0.40;;;0.20;;
35530;SDS011;21637;53.352;-6.356;2024-02-04T05:51:27;0.10;;;0.10;;
35530;SDS011;21637;53.352;-6.356;2024-02-04T05:53:53;0.30;;;0.30;;
35530;SDS011;21637;53.352;-6.356;2024-02-04T05:56:19;0.40;;;0.40;;
35530;SDS011;21637;53.352;-6.356;2024-02-04T05:58:45;1.08;;;0.30;;
35530;SDS011;21637;53.352;-6.356;2024-02-04T06:01:11;0.30;;;0.30;;
35530;SDS011;21637;53.352;-6.356;2024-02-04T06:03:37;0.55;;;0.30;;
35530;SDS011;21637;53.352;-6.356;2024-02-04T06:06:03;0.35;;;0.30;;
35530;SDS011;21637;53.352;-6.356;2024-02-04T06:08:29;0.20;;;0.20;;
35530;SDS011;21637;53.352;-6.356;2024-02-04T06:10:55;0.63;;;0.30;;
35530;SDS011;21637;53.352;-6.356;2024-02-04T06:13:20;0.38;;;0.38;;
35530;SDS011;21637;53.352;-6.356;2024-02-04T06:15:46;0.13;;;0.10;;
35530;SDS011;21637;53.352;-6.356;2024-02-04T06:18:12;0.28;;;0.28;;
35530;SDS011;21637;53.352;-6.356;2024-02-04T06:20:37;0.30;;;0.20;;
35530;SDS011;21637;53.352;-6.356;2024-02-04T06:23:03;0.20;;;0.20;;
35530;SDS011;21637;53.352;-6.356;2024-02-04T06:25:29;0.63;;;0.32;;
35530;SDS011;21637;53.352;-6.356;2024-02-04T06:27:55;1.02;;;0.38;;
35530;SDS011;21637;53.352;-6.356;2024-02-04T06:30:20;0.52;;;0.30;;
35530;SDS011;21637;53.352;-6.356;2024-02-04T06:32:47;0.68;;;0.30;;
35530;SDS011;21637;53.352;-6.356;2024-02-04T06:35:14;1.33;;;0.47;;
35530;SDS011;21637;53.352;-6.356;2024-02-04T06:37:41;1.38;;;0.70;;
35530;SDS011;21637;53.352;-6.356;2024-02-04T06:40:08;3.05;;;0.60;;
35530;SDS011;21637;53.352;-6.356;2024-02-04T06:42:35;2.72;;;0.70;;
35530;SDS011;21637;53.352;-6.356;2024-02-04T06:45:00;2.65;;;0.75;;
35530;SDS011;21637;53.352;-6.356;2024-02-04T06:47:26;2.70;;;0.75;;
35530;SDS011;21637;53.352;-6.356;2024-02-04T06:49:52;3.38;;;0.88;;
35530;SDS011;21637;53.352;-6.356;2024-02-04T06:52:17;3.33;;;1.10;;
35530;SDS011;21637;53.352;-6.356;2024-02-04T06:54:43;5.72;;;1.00;;
35530;SDS011;21637;53.352;-6.356;2024-02-04T06:57:09;6.15;;;2.05;;
35530;SDS011;21637;53.352;-6.356;2024-02-04T06:59:35;3.65;;;1.20;;
35530;SDS011;21637;53.352;-6.356;2024-02-04T07:02:01;3.80;;;1.15;;
35530;SDS011;21637;53.352;-6.356;2024-02-04T07:04:27;6.03;;;1.40;;
35530;SDS011;21637;53.352;-6.356;2024-02-04T07:06:53;7.05;;;1.30;;
35530;SDS011;21637;53.352;-6.356;2024-02-04T07:09:19;9.05;;;1.60;;
35530;SDS011;21637;53.352;-6.356;2024-02-04T07:11:44;6.55;;;1.70;;
35530;SDS011;21637;53.352;-6.356;2024-02-04T07:14:11;6.22;;;1.42;;
35530;SDS011;21637;53.352;-6.356;2024-02-04T07:16:36;6.82;;;1.45;;
35530;SDS011;21637;53.352;-6.356;2024-02-04T07:19:02;3.85;;;1.10;;
35530;SDS011;21637;53.352;-6.356;2024-02-04T07:21:29;5.43;;;1.20;;
35530;SDS011;21637;53.352;-6.356;2024-02-04T07:23:54;9.20;;;1.50;;
35530;SDS011;21637;53.352;-6.356;2024-02-04T07:26:20;6.30;;;1.13;;
35530;SDS011;21637;53.352;-6.356;2024-02-04T07:28:46;6.22;;;1.23;;
35530;SDS011;21637;53.352;-6.356;2024-02-04T07:31:11;4.03;;;1.35;;
35530;SDS011;21637;53.352;-6.356;2024-02-04T07:33:37;4.50;;;1.50;;
35530;SDS011;21637;53.352;-6.356;2024-02-04T07:36:03;3.92;;;1.40;;
35530;SDS011;21637;53.352;-6.356;2024-02-04T07:38:29;4.20;;;1.45;;
35530;SDS011;21637;53.352;-6.356;2024-02-04T07:40:54;4.45;;;1.27;;
35530;SDS011;21637;53.352;-6.356;2024-02-04T07:43:23;7.47;;;1.60;;
35530;SDS011;21637;53.352;-6.356;2024-02-04T07:45:49;5.35;;;1.20;;
35530;SDS011;21637;53.352;-6.356;2024-02-04T07:48:15;6.18;;;1.63;;
35530;SDS011;21637;53.352;-6.356;2024-02-04T07:50:42;5.82;;;1.33;;
35530;SDS011;21637;53.352;-6.356;2024-02-04T07:53:08;4.22;;;1.20;;
35530;SDS011;21637;53.352;-6.356;2024-02-04T07:55:33;3.42;;;0.95;;
35530;SDS011;21637;53.352;-6.356;2024-02-04T07:57:59;4.10;;;1.25;;
35530;SDS011;21637;53.352;-6.356;2024-02-04T08:00:25;2.28;;;1.10;;
35530;SDS011;21637;53.352;-6.356;2024-02-04T08:02:51;6.93;;;1.70;;
35530;SDS011;21637;53.352;-6.356;2024-02-04T08:05:16;2.17;;;0.82;;
35530;SDS011;21637;53.352;-6.356;2024-02-04T08:07:42;4.10;;;1.08;;
35530;SDS011;21637;53.352;-6.356;2024-02-04T08:10:08;5.32;;;1.17;;
35530;SDS011;21637;53.352;-6.356;2024-02-04T08:12:34;3.90;;;1.40;;
35530;SDS011;21637;53.352;-6.356;2024-02-04T08:15:00;2.83;;;0.82;;
35530;SDS011;21637;53.352;-6.356;2024-02-04T08:17:26;2.67;;;0.90;;
35530;SDS011;21637;53.352;-6.356;2024-02-04T08:19:53;5.05;;;1.02;;
35530;SDS011;21637;53.352;-6.356;2024-02-04T08:22:19;3.78;;;1.13;;
35530;SDS011;21637;53.352;-6.356;2024-02-04T08:24:45;2.80;;;0.98;;
35530;SDS011;21637;53.352;-6.356;2024-02-04T08:27:11;5.05;;;0.98;;
35530;SDS011;21637;53.352;-6.356;2024-02-04T08:29:40;3.30;;;0.98;;
35530;SDS011;21637;53.352;-6.356;2024-02-04T08:32:06;2.25;;;0.80;;
35530;SDS011;21637;53.352;-6.356;2024-02-04T08:34:31;6.40;;;0.80;;
35530;SDS011;21637;53.352;-6.356;2024-02-04T08:36:57;2.75;;;0.82;;
35530;SDS011;21637;53.352;-6.356;2024-02-04T08:39:23;3.60;;;0.77;;
35530;SDS011;21637;53.352;-6.356;2024-02-04T08:41:50;5.13;;;0.73;;
35530;SDS011;21637;53.352;-6.356;2024-02-04T08:44:16;2.22;;;0.80;;
35530;SDS011;21637;53.352;-6.356;2024-02-04T08:46:42;3.67;;;0.90;;
35530;SDS011;21637;53.352;-6.356;2024-02-04T08:49:07;2.42;;;0.60;;
35530;SDS011;21637;53.352;-6.356;2024-02-04T08:51:33;2.33;;;0.77;;
35530;SDS011;21637;53.352;-6.356;2024-02-04T08:53:59;3.45;;;1.02;;
35530;SDS011;21637;53.352;-6.356;2024-02-04T08:56:25;2.33;;;0.70;;
35530;SDS011;21637;53.352;-6.356;2024-02-04T08:58:51;1.73;;;0.65;;
35530;SDS011;21637;53.352;-6.356;2024-02-04T09:01:17;2.70;;;0.70;;
35530;SDS011;21637;53.352;-6.356;2024-02-04T09:03:44;1.70;;;0.50;;
35530;SDS011;21637;53.352;-6.356;2024-02-04T09:06:09;1.10;;;0.43;;
35530;SDS011;21637;53.352;-6.356;2024-02-04T09:08:35;1.75;;;0.73;;
35530;SDS011;21637;53.352;-6.356;2024-02-04T09:11:01;1.42;;;0.60;;
35530;SDS011;21637;53.352;-6.356;2024-02-04T09:13:26;2.08;;;0.60;;
35530;SDS011;21637;53.352;-6.356;2024-02-04T09:15:52;1.05;;;0.40;;
35530;SDS011;21637;53.352;-6.356;2024-02-04T09:18:19;3.05;;;0.40;;
35530;SDS011;21637;53.352;-6.356;2024-02-04T09:20:45;1.67;;;0.43;;
35530;SDS011;21637;53.352;-6.356;2024-02-04T09:23:11;0.95;;;0.38;;
35530;SDS011;21637;53.352;-6.356;2024-02-04T09:25:37;0.68;;;0.50;;
35530;SDS011;21637;53.352;-6.356;2024-02-04T09:28:03;1.25;;;0.43;;
35530;SDS011;21637;53.352;-6.356;2024-02-04T09:30:29;2.00;;;0.50;;
35530;SDS011;21637;53.352;-6.356;2024-02-04T09:32:55;1.38;;;0.70;;
35530;SDS011;21637;53.352;-6.356;2024-02-04T09:35:21;2.17;;;0.73;;
35530;SDS011;21637;53.352;-6.356;2024-02-04T09:37:47;3.35;;;0.80;;
35530;SDS011;21637;53.352;-6.356;2024-02-04T09:40:12;1.13;;;0.70;;
35530;SDS011;21637;53.352;-6.356;2024-02-04T09:42:38;3.15;;;0.65;;
35530;SDS011;21637;53.352;-6.356;2024-02-04T09:45:05;2.72;;;1.00;;
35530;SDS011;21637;53.352;-6.356;2024-02-04T09:47:31;3.45;;;0.80;;
35530;SDS011;21637;53.352;-6.356;2024-02-04T09:49:59;2.70;;;0.93;;
35530;SDS011;21637;53.352;-6.356;2024-02-04T09:52:28;2.42;;;0.93;;
35530;SDS011;21637;53.352;-6.356;2024-02-04T09:55:01;2.53;;;0.80;;
35530;SDS011;21637;53.352;-6.356;2024-02-04T09:57:28;5.00;;;0.77;;
35530;SDS011;21637;53.352;-6.356;2024-02-04T09:59:58;3.05;;;0.82;;
35530;SDS011;21637;53.352;-6.356;2024-02-04T10:02:24;3.33;;;0.70;;
35530;SDS011;21637;53.352;-6.356;2024-02-04T10:04:50;2.78;;;0.90;;
35530;SDS011;21637;53.352;-6.356;2024-02-04T10:07:16;2.05;;;0.98;;
35530;SDS011;21637;53.352;-6.356;2024-02-04T10:09:43;3.53;;;0.80;;
35530;SDS011;21637;53.352;-6.356;2024-02-04T10:12:09;3.75;;;1.05;;
35530;SDS011;21637;53.352;-6.356;2024-02-04T10:14:35;3.08;;;0.90;;
35530;SDS011;21637;53.352;-6.356;2024-02-04T10:17:01;4.22;;;1.15;;
35530;SDS011;21637;53.352;-6.356;2024-02-04T10:19:27;2.75;;;0.90;;
35530;SDS011;21637;53.352;-6.356;2024-02-04T10:21:59;3.85;;;1.48;;
35530;SDS011;21637;53.352;-6.356;2024-02-04T10:24:26;2.65;;;0.93;;
35530;SDS011;21637;53.352;-6.356;2024-02-04T10:26:52;5.35;;;1.33;;
35530;SDS011;21637;53.352;-6.356;2024-02-04T10:29:19;3.60;;;1.10;;
35530;SDS011;21637;53.352;-6.356;2024-02-04T10:31:44;4.20;;;1.30;;
35530;SDS011;21637;53.352;-6.356;2024-02-04T10:34:10;5.82;;;1.40;;
35530;SDS011;21637;53.352;-6.356;2024-02-04T10:36:36;6.90;;;1.15;;
35530;SDS011;21637;53.352;-6.356;2024-02-04T10:39:03;2.88;;;1.20;;
35530;SDS011;21637;53.352;-6.356;2024-02-04T10:41:29;3.53;;;1.20;;
35530;SDS011;21637;53.352;-6.356;2024-02-04T10:43:56;3.13;;;1.10;;
35530;SDS011;21637;53.352;-6.356;2024-02-04T10:46:28;2.45;;;1.27;;
35530;SDS011;21637;53.352;-6.356;2024-02-04T10:49:00;5.45;;;1.80;;
35530;SDS011;21637;53.352;-6.356;2024-02-04T10:51:28;7.00;;;2.00;;
35530;SDS011;21637;53.352;-6.356;2024-02-04T10:53:56;8.30;;;1.85;;
35530;SDS011;21637;53.352;-6.356;2024-02-04T10:56:32;5.65;;;2.00;;
35530;SDS011;21637;53.352;-6.356;2024-02-04T10:59:20;6.03;;;1.85;;
35530;SDS011;21637;53.352;-6.356;2024-02-04T11:01:47;5.60;;;1.98;;
35530;SDS011;21637;53.352;-6.356;2024-02-04T11:04:16;6.82;;;2.30;;
35530;SDS011;21637;53.352;-6.356;2024-02-04T11:06:43;6.72;;;1.73;;
35530;SDS011;21637;53.352;-6.356;2024-02-04T11:09:11;6.30;;;1.63;;
35530;SDS011;21637;53.352;-6.356;2024-02-04T11:11:39;8.38;;;2.13;;
35530;SDS011;21637;53.352;-6.356;2024-02-04T11:14:08;12.35;;;2.20;;
35530;SDS011;21637;53.352;-6.356;2024-02-04T11:16:46;7.88;;;1.98;;
35530;SDS011;21637;53.352;-6.356;2024-02-04T11:28:02;11.70;;;2.70;;
35530;SDS011;21637;53.352;-6.356;2024-02-04T11:30:32;11.30;;;2.30;;
35530;SDS011;21637;53.352;-6.356;2024-02-04T11:33:09;10.52;;;2.95;;
35530;SDS011;21637;53.352;-6.356;2024-02-04T11:35:36;13.20;;;2.90;;
35530;SDS011;21637;53.352;-6.356;2024-02-04T11:38:02;10.30;;;3.20;;
35530;SDS011;21637;53.352;-6.356;2024-02-04T11:40:35;15.20;;;3.35;;
35530;SDS011;21637;53.352;-6.356;2024-02-04T11:43:06;13.80;;;3.30;;
35530;SDS011;21637;53.352;-6.356;2024-02-04T11:45:36;23.73;;;3.45;;
35530;SDS011;21637;53.352;-6.356;2024-02-04T11:48:06;19.45;;;3.83;;
35530;SDS011;21637;53.352;-6.356;2024-02-04T11:50:35;16.25;;;4.13;;
35530;SDS011;21637;53.352;-6.356;2024-02-04T11:53:05;18.30;;;4.05;;
35530;SDS011;21637;53.352;-6.356;2024-02-04T11:55:39;18.45;;;3.85;;
35530;SDS011;21637;53.352;-6.356;2024-02-04T11:58:06;23.73;;;4.50;;
35530;SDS011;21637;53.352;-6.356;2024-02-04T12:00:35;22.60;;;4.55;;
35530;SDS011;21637;53.352;-6.356;2024-02-04T12:03:05;22.48;;;4.53;;
35530;SDS011;21637;53.352;-6.356;2024-02-04T12:05:36;20.02;;;4.80;;
35530;SDS011;21637;53.352;-6.356;2024-02-04T12:08:06;24.33;;;4.65;;
35530;SDS011;21637;53.352;-6.356;2024-02-04T12:10:36;22.95;;;4.82;;
35530;SDS011;21637;53.352;-6.356;2024-02-04T12:13:03;21.67;;;4.30;;
35530;SDS011;21637;53.352;-6.356;2024-02-04T12:15:30;17.08;;;4.38;;
35530;SDS011;21637;53.352;-6.356;2024-02-04T12:18:05;29.05;;;5.63;;
35530;SDS011;21637;53.352;-6.356;2024-02-04T12:20:35;21.90;;;5.05;;
35530;SDS011;21637;53.352;-6.356;2024-02-04T12:23:05;25.75;;;5.47;;
35530;SDS011;21637;53.352;-6.356;2024-02-04T12:25:31;22.17;;;5.20;;
35530;SDS011;21637;53.352;-6.356;2024-02-04T12:27:58;26.95;;;5.40;;
35530;SDS011;21637;53.352;-6.356;2024-02-04T12:30:24;28.98;;;5.10;;
35530;SDS011;21637;53.352;-6.356;2024-02-04T12:33:01;21.63;;;5.20;;
35530;SDS011;21637;53.352;-6.356;2024-02-04T12:35:29;22.13;;;5.85;;
35530;SDS011;21637;53.352;-6.356;2024-02-04T12:37:55;28.20;;;6.32;;
35530;SDS011;21637;53.352;-6.356;2024-02-04T12:42:55;24.88;;;5.47;;
35530;SDS011;21637;53.352;-6.356;2024-02-04T12:45:23;23.35;;;4.82;;
35530;SDS011;21637;53.352;-6.356;2024-02-04T12:47:50;30.45;;;6.38;;
35530;SDS011;21637;53.352;-6.356;2024-02-04T12:50:21;28.13;;;6.30;;
35530;SDS011;21637;53.352;-6.356;2024-02-04T12:52:49;22.83;;;5.75;;
35530;SDS011;21637;53.352;-6.356;2024-02-04T12:55:27;30.17;;;5.55;;
35530;SDS011;21637;53.352;-6.356;2024-02-04T12:58:06;29.17;;;5.47;;
35530;SDS011;21637;53.352;-6.356;2024-02-04T13:00:33;24.40;;;5.32;;
35530;SDS011;21637;53.352;-6.356;2024-02-04T13:03:01;25.90;;;5.30;;
35530;SDS011;21637;53.352;-6.356;2024-02-04T13:05:28;31.17;;;5.82;;
35530;SDS011;21637;53.352;-6.356;2024-02-04T13:07:56;28.55;;;6.13;;
35530;SDS011;21637;53.352;-6.356;2024-02-04T13:10:23;24.35;;;5.90;;
35530;SDS011;21637;53.352;-6.356;2024-02-04T13:15:34;31.67;;;6.73;;
35530;SDS011;21637;53.352;-6.356;2024-02-04T13:18:04;32.08;;;6.40;;
35530;SDS011;21637;53.352;-6.356;2024-02-04T13:20:30;30.33;;;6.47;;
35530;SDS011;21637;53.352;-6.356;2024-02-04T13:22:56;24.48;;;5.50;;
35530;SDS011;21637;53.352;-6.356;2024-02-04T13:25:22;32.08;;;6.20;;
35530;SDS011;21637;53.352;-6.356;2024-02-04T13:27:52;28.83;;;6.28;;
35530;SDS011;21637;53.352;-6.356;2024-02-04T13:30:31;26.52;;;6.60;;
35530;SDS011;21637;53.352;-6.356;2024-02-04T13:33:09;30.35;;;6.15;;
35530;SDS011;21637;53.352;-6.356;2024-02-04T13:35:41;29.23;;;6.22;;
35530;SDS011;21637;53.352;-6.356;2024-02-04T13:38:11;31.15;;;6.97;;
35530;SDS011;21637;53.352;-6.356;2024-02-04T13:40:48;29.00;;;5.63;;
35530;SDS011;21637;53.352;-6.356;2024-02-04T13:43:17;32.00;;;6.15;;
35530;SDS011;21637;53.352;-6.356;2024-02-04T13:45:47;35.72;;;6.82;;
35530;SDS011;21637;53.352;-6.356;2024-02-04T13:48:13;33.35;;;6.53;;
35530;SDS011;21637;53.352;-6.356;2024-02-04T13:50:44;35.67;;;6.40;;
35530;SDS011;21637;53.352;-6.356;2024-02-04T13:53:24;36.08;;;6.85;;
35530;SDS011;21637;53.352;-6.356;2024-02-04T13:55:53;32.72;;;6.47;;
35530;SDS011;21637;53.352;-6.356;2024-02-04T13:58:26;37.13;;;7.30;;
35530;SDS011;21637;53.352;-6.356;2024-02-04T14:01:32;33.83;;;6.47;;
35530;SDS011;21637;53.352;-6.356;2024-02-04T14:04:20;32.55;;;5.97;;
35530;SDS011;21637;53.352;-6.356;2024-02-04T14:06:49;33.85;;;6.93;;
35530;SDS011;21637;53.352;-6.356;2024-02-04T14:09:18;30.55;;;6.57;;
35530;SDS011;21637;53.352;-6.356;2024-02-04T14:11:54;31.30;;;6.60;;
35530;SDS011;21637;53.352;-6.356;2024-02-04T14:14:23;34.10;;;6.45;;
35530;SDS011;21637;53.352;-6.356;2024-02-04T14:17:01;35.92;;;7.65;;
35530;SDS011;21637;53.352;-6.356;2024-02-04T14:19:31;21.92;;;6.93;;
35530;SDS011;21637;53.352;-6.356;2024-02-04T14:22:00;29.88;;;7.32;;
35530;SDS011;21637;53.352;-6.356;2024-02-04T14:24:33;34.22;;;7.93;;
35530;SDS011;21637;53.352;-6.356;2024-02-04T14:27:11;32.95;;;7.63;;
35530;SDS011;21637;53.352;-6.356;2024-02-04T14:29:40;33.25;;;8.23;;
35530;SDS011;21637;53.352;-6.356;2024-02-04T14:32:07;40.28;;;6.95;;
35530;SDS011;21637;53.352;-6.356;2024-02-04T14:34:36;36.58;;;8.20;;
35530;SDS011;21637;53.352;-6.356;2024-02-04T14:37:03;37.92;;;10.30;;
35530;SDS011;21637;53.352;-6.356;2024-02-04T14:39:33;31.13;;;7.00;;
35530;SDS011;21637;53.352;-6.356;2024-02-04T14:42:05;38.25;;;7.75;;
35530;SDS011;21637;53.352;-6.356;2024-02-04T14:44:38;38.35;;;8.43;;
35530;SDS011;21637;53.352;-6.356;2024-02-04T14:47:07;43.80;;;8.55;;
35530;SDS011;21637;53.352;-6.356;2024-02-04T14:49:33;31.45;;;8.40;;
35530;SDS011;21637;53.352;-6.356;2024-02-04T14:52:01;40.15;;;9.30;;
35530;SDS011;21637;53.352;-6.356;2024-02-04T14:54:28;40.97;;;9.00;;